Airfield :
LOGIN :

Register | Disclaimer

   EN    FR    IT 

 










Legend :    VFR   Marginal VFR   IFR   Intensive IFR   Very Intensive IFR
Visi :
Ceiling :
>= 8 km
>= 3000ft
5 to 8 km
1000 to 3000 ft
1500m to 5 km
500 to 1000 ft
800 to 1500m
200 to 500 ft
< 800m
< 200 ft
Symbols :   Thunderstorms  Fog  Heavy snow  Heavy precipitations  Wind > 20 kt
SIGMETs :     Misc.  Thunderstorms  Icing  Turbulence  Mountain Waves  Volcanic Ashes






- Airport Elevation : 290 ft
- IATA code : LAI


LFRO - Lannion

CURRENT METAR :
  • 232130Z AUTO 06004KT 030V090 9999 OVC017 19/17 Q1005

EXPIRED METARs :
  • 232100Z AUTO VRB03KT 9999 OVC018/// ///CB 19/17 Q1005
  • 232030Z AUTO 05003KT 360V100 9999 SCT017/// BKN025/// OVC060/// ///CB 19/17 Q1005
  • 232000Z AUTO 02004KT 340V050 9999 BKN018 OVC026 18/16 Q1005
  • 231930Z AUTO 06004KT 350V100 9999 SCT014 BKN019 BKN028 19/16 Q1005
  • 231900Z AUTO 08010KT 040V120 9999 BKN016 OVC022 18/16 Q1005

Expired Forecast.



MET'MAP, your aeronautical weather chart ! - Copyright ORBIFLY December 2007 - Disclaimer

ORBIFLY MET'MAP TEAM :

Programming & Development : Alexandra Zaïnal
Concept & original design : Baudouin d'Aumeries
Assistance for programming : Marc-Olivier Méhu
Technical & hardware support : Manuel Goepfert

Contact : metmap@orbifly.com




SOURCES & CREDITS :

   NOAA